sensor_id;sensor_type;location;lat;lon;timestamp;temperature;humidity
34985;DHT22;21190;58.750;17.004;2022-08-04T00:07:07;20.70;99.90
34985;DHT22;21190;58.750;17.004;2022-08-04T00:12:21;20.70;99.90
34985;DHT22;21190;58.750;17.004;2022-08-04T00:14:57;20.60;99.90
34985;DHT22;21190;58.750;17.004;2022-08-04T00:17:27;20.60;99.90
34985;DHT22;21190;58.750;17.004;2022-08-04T00:19:58;20.60;99.90
34985;DHT22;21190;58.750;17.004;2022-08-04T00:22:28;20.60;99.90
34985;DHT22;21190;58.750;17.004;2022-08-04T00:24:55;20.60;99.90
34985;DHT22;21190;58.750;17.004;2022-08-04T00:27:23;20.60;99.90
34985;DHT22;21190;58.750;17.004;2022-08-04T00:29:50;20.50;99.90
34985;DHT22;21190;58.750;17.004;2022-08-04T00:32:18;20.50;99.90
34985;DHT22;21190;58.750;17.004;2022-08-04T00:35:00;20.50;99.90
34985;DHT22;21190;58.750;17.004;2022-08-04T00:37:27;20.40;99.90
34985;DHT22;21190;58.750;17.004;2022-08-04T00:39:55;20.40;99.90
34985;DHT22;21190;58.750;17.004;2022-08-04T00:42:28;20.40;99.90
34985;DHT22;21190;58.750;17.004;2022-08-04T01:00:32;20.30;99.90
34985;DHT22;21190;58.750;17.004;2022-08-04T01:03:10;20.20;99.90
34985;DHT22;21190;58.750;17.004;2022-08-04T01:13:53;20.10;99.90
34985;DHT22;21190;58.750;17.004;2022-08-04T01:16:25;20.20;99.90
34985;DHT22;21190;58.750;17.004;2022-08-04T01:19:07;20.20;99.90
34985;DHT22;21190;58.750;17.004;2022-08-04T01:29:27;20.20;99.90
34985;DHT22;21190;58.750;17.004;2022-08-04T01:32:27;20.10;99.90
34985;DHT22;21190;58.750;17.004;2022-08-04T01:40:04;20.00;99.90
34985;DHT22;21190;58.750;17.004;2022-08-04T01:42:32;20.00;99.90
34985;DHT22;21190;58.750;17.004;2022-08-04T01:44:59;20.10;99.90
34985;DHT22;21190;58.750;17.004;2022-08-04T01:47:28;20.00;99.90
34985;DHT22;21190;58.750;17.004;2022-08-04T01:49:59;20.00;99.90
34985;DHT22;21190;58.750;17.004;2022-08-04T01:52:27;20.00;99.90
34985;DHT22;21190;58.750;17.004;2022-08-04T01:54:54;20.00;99.90
34985;DHT22;21190;58.750;17.004;2022-08-04T01:57:22;19.90;99.90
34985;DHT22;21190;58.750;17.004;2022-08-04T02:00:04;20.00;99.90
34985;DHT22;21190;58.750;17.004;2022-08-04T02:02:32;19.90;99.90
34985;DHT22;21190;58.750;17.004;2022-08-04T02:04:59;19.90;99.90
34985;DHT22;21190;58.750;17.004;2022-08-04T02:07:29;19.80;99.90
34985;DHT22;21190;58.750;17.004;2022-08-04T02:18:24;19.70;99.90
34985;DHT22;21190;58.750;17.004;2022-08-04T02:20:56;19.70;99.90
34985;DHT22;21190;58.750;17.004;2022-08-04T02:23:34;19.70;99.90
34985;DHT22;21190;58.750;17.004;2022-08-04T02:26:04;19.70;99.90
34985;DHT22;21190;58.750;17.004;2022-08-04T02:28:49;19.70;99.90
34985;DHT22;21190;58.750;17.004;2022-08-04T02:31:31;19.70;99.90
34985;DHT22;21190;58.750;17.004;2022-08-04T02:34:08;19.60;99.90
34985;DHT22;21190;58.750;17.004;2022-08-04T02:36:39;19.60;99.90
34985;DHT22;21190;58.750;17.004;2022-08-04T02:39:07;19.50;99.90
34985;DHT22;21190;58.750;17.004;2022-08-04T02:41:35;19.50;99.90
34985;DHT22;21190;58.750;17.004;2022-08-04T02:44:03;19.50;99.90
34985;DHT22;21190;58.750;17.004;2022-08-04T02:46:31;19.50;99.90
34985;DHT22;21190;58.750;17.004;2022-08-04T02:49:00;19.50;99.90
34985;DHT22;21190;58.750;17.004;2022-08-04T02:51:29;19.50;99.90
34985;DHT22;21190;58.750;17.004;2022-08-04T02:53:57;19.50;99.90
34985;DHT22;21190;58.750;17.004;2022-08-04T02:56:25;19.40;99.90
34985;DHT22;21190;58.750;17.004;2022-08-04T02:59:00;19.40;99.90
34985;DHT22;21190;58.750;17.004;2022-08-04T03:01:27;19.50;99.90
34985;DHT22;21190;58.750;17.004;2022-08-04T03:04:01;19.40;99.90
34985;DHT22;21190;58.750;17.004;2022-08-04T03:11:55;19.40;99.90
34985;DHT22;21190;58.750;17.004;2022-08-04T03:14:35;19.40;99.90
34985;DHT22;21190;58.750;17.004;2022-08-04T03:35:10;19.20;99.90
34985;DHT22;21190;58.750;17.004;2022-08-04T03:40:57;19.10;99.90
34985;DHT22;21190;58.750;17.004;2022-08-04T03:46:33;19.10;99.90
34985;DHT22;21190;58.750;17.004;2022-08-04T03:56:57;19.10;99.90
34985;DHT22;21190;58.750;17.004;2022-08-04T04:10:28;19.10;99.90
34985;DHT22;21190;58.750;17.004;2022-08-04T04:28:40;19.20;99.90
34985;DHT22;21190;58.750;17.004;2022-08-04T04:31:18;19.20;99.90
34985;DHT22;21190;58.750;17.004;2022-08-04T04:39:42;19.40;99.90
34985;DHT22;21190;58.750;17.004;2022-08-04T04:45:09;19.40;99.90
34985;DHT22;21190;58.750;17.004;2022-08-04T04:53:06;19.60;99.90
34985;DHT22;21190;58.750;17.004;2022-08-04T04:55:42;19.60;99.90
34985;DHT22;21190;58.750;17.004;2022-08-04T04:58:14;19.70;99.90
34985;DHT22;21190;58.750;17.004;2022-08-04T05:13:44;20.00;99.90
34985;DHT22;21190;58.750;17.004;2022-08-04T05:16:34;20.00;99.90
34985;DHT22;21190;58.750;17.004;2022-08-04T05:21:47;20.10;99.90
34985;DHT22;21190;58.750;17.004;2022-08-04T05:24:16;20.20;99.90
34985;DHT22;21190;58.750;17.004;2022-08-04T05:26:45;20.20;99.90
34985;DHT22;21190;58.750;17.004;2022-08-04T05:29:15;20.30;99.90
34985;DHT22;21190;58.750;17.004;2022-08-04T05:31:45;20.30;99.90
34985;DHT22;21190;58.750;17.004;2022-08-04T05:34:23;20.30;99.90
34985;DHT22;21190;58.750;17.004;2022-08-04T05:36:52;20.40;99.90
34985;DHT22;21190;58.750;17.004;2022-08-04T05:39:23;20.40;99.90
34985;DHT22;21190;58.750;17.004;2022-08-04T05:41:50;20.50;99.90
34985;DHT22;21190;58.750;17.004;2022-08-04T05:44:23;20.60;99.90
34985;DHT22;21190;58.750;17.004;2022-08-04T05:46:53;20.70;99.90
34985;DHT22;21190;58.750;17.004;2022-08-04T05:49:21;20.70;99.90
34985;DHT22;21190;58.750;17.004;2022-08-04T05:51:49;20.80;99.90
34985;DHT22;21190;58.750;17.004;2022-08-04T05:54:17;20.80;99.90
34985;DHT22;21190;58.750;17.004;2022-08-04T05:56:46;20.80;99.90
34985;DHT22;21190;58.750;17.004;2022-08-04T05:59:14;20.90;99.90
34985;DHT22;21190;58.750;17.004;2022-08-04T06:01:41;20.80;99.90
34985;DHT22;21190;58.750;17.004;2022-08-04T06:04:23;20.80;99.90
34985;DHT22;21190;58.750;17.004;2022-08-04T06:06:52;20.80;99.90
34985;DHT22;21190;58.750;17.004;2022-08-04T06:09:19;20.80;99.90
34985;DHT22;21190;58.750;17.004;2022-08-04T06:11:46;20.90;99.90
34985;DHT22;21190;58.750;17.004;2022-08-04T06:14:39;20.90;99.90
34985;DHT22;21190;58.750;17.004;2022-08-04T06:17:08;21.00;99.90
34985;DHT22;21190;58.750;17.004;2022-08-04T06:19:55;21.00;99.90
34985;DHT22;21190;58.750;17.004;2022-08-04T06:22:43;21.10;99.90
34985;DHT22;21190;58.750;17.004;2022-08-04T06:25:13;21.10;99.90
34985;DHT22;21190;58.750;17.004;2022-08-04T06:27:41;21.00;99.90
34985;DHT22;21190;58.750;17.004;2022-08-04T06:30:08;21.10;99.90
34985;DHT22;21190;58.750;17.004;2022-08-04T06:32:40;21.10;99.90
34985;DHT22;21190;58.750;17.004;2022-08-04T06:35:15;21.10;99.90
34985;DHT22;21190;58.750;17.004;2022-08-04T06:37:46;21.20;99.90
34985;DHT22;21190;58.750;17.004;2022-08-04T06:40:15;21.40;99.90
34985;DHT22;21190;58.750;17.004;2022-08-04T06:43:02;21.40;99.90
34985;DHT22;21190;58.750;17.004;2022-08-04T06:45:30;21.40;99.90
34985;DHT22;21190;58.750;17.004;2022-08-04T06:47:57;21.40;99.90
34985;DHT22;21190;58.750;17.004;2022-08-04T06:50:24;21.40;99.90
34985;DHT22;21190;58.750;17.004;2022-08-04T06:53:11;21.40;99.90
34985;DHT22;21190;58.750;17.004;2022-08-04T06:55:39;21.40;99.90
34985;DHT22;21190;58.750;17.004;2022-08-04T06:58:06;21.50;99.90
34985;DHT22;21190;58.750;17.004;2022-08-04T07:00:35;21.50;99.90
34985;DHT22;21190;58.750;17.004;2022-08-04T07:03:02;21.50;99.90
34985;DHT22;21190;58.750;17.004;2022-08-04T07:05:30;21.50;99.90
34985;DHT22;21190;58.750;17.004;2022-08-04T07:07:57;21.40;99.90
34985;DHT22;21190;58.750;17.004;2022-08-04T07:10:26;21.40;99.90
34985;DHT22;21190;58.750;17.004;2022-08-04T07:12:57;21.50;99.90
34985;DHT22;21190;58.750;17.004;2022-08-04T07:15:25;21.50;99.90
34985;DHT22;21190;58.750;17.004;2022-08-04T07:17:52;21.50;99.90
34985;DHT22;21190;58.750;17.004;2022-08-04T07:20:19;21.60;99.90
34985;DHT22;21190;58.750;17.004;2022-08-04T07:23:04;21.60;99.90
34985;DHT22;21190;58.750;17.004;2022-08-04T07:25:34;21.80;99.90
34985;DHT22;21190;58.750;17.004;2022-08-04T07:28:22;21.70;99.90
34985;DHT22;21190;58.750;17.004;2022-08-04T07:30:49;21.70;99.90
34985;DHT22;21190;58.750;17.004;2022-08-04T07:33:16;21.80;99.90
34985;DHT22;21190;58.750;17.004;2022-08-04T07:35:48;21.80;99.90
34985;DHT22;21190;58.750;17.004;2022-08-04T07:38:33;21.80;99.90
34985;DHT22;21190;58.750;17.004;2022-08-04T07:41:03;21.80;99.90
34985;DHT22;21190;58.750;17.004;2022-08-04T07:43:51;21.90;99.90
34985;DHT22;21190;58.750;17.004;2022-08-04T07:46:20;21.90;99.90
34985;DHT22;21190;58.750;17.004;2022-08-04T07:48:47;22.10;99.90
34985;DHT22;21190;58.750;17.004;2022-08-04T07:51:14;22.30;99.90
34985;DHT22;21190;58.750;17.004;2022-08-04T07:53:41;22.40;99.90
34985;DHT22;21190;58.750;17.004;2022-08-04T07:56:21;22.50;99.90
34985;DHT22;21190;58.750;17.004;2022-08-04T07:58:49;22.40;99.90
34985;DHT22;21190;58.750;17.004;2022-08-04T08:01:17;22.50;99.90
34985;DHT22;21190;58.750;17.004;2022-08-04T08:03:44;22.40;99.90
34985;DHT22;21190;58.750;17.004;2022-08-04T08:06:12;22.40;99.90
34985;DHT22;21190;58.750;17.004;2022-08-04T08:08:59;22.40;99.90
34985;DHT22;21190;58.750;17.004;2022-08-04T08:11:38;22.60;99.90
34985;DHT22;21190;58.750;17.004;2022-08-04T08:14:25;22.60;99.90
34985;DHT22;21190;58.750;17.004;2022-08-04T08:16:52;22.60;99.90
34985;DHT22;21190;58.750;17.004;2022-08-04T08:19:19;22.60;99.90
34985;DHT22;21190;58.750;17.004;2022-08-04T08:21:46;22.70;99.90
34985;DHT22;21190;58.750;17.004;2022-08-04T08:24:29;22.70;99.90
34985;DHT22;21190;58.750;17.004;2022-08-04T08:26:57;22.90;99.90
34985;DHT22;21190;58.750;17.004;2022-08-04T08:29:24;22.90;99.90
34985;DHT22;21190;58.750;17.004;2022-08-04T08:31:51;23.00;99.90
34985;DHT22;21190;58.750;17.004;2022-08-04T08:34:25;23.20;99.90
34985;DHT22;21190;58.750;17.004;2022-08-04T08:36:57;23.20;99.90
34985;DHT22;21190;58.750;17.004;2022-08-04T08:39:31;23.20;99.90
34985;DHT22;21190;58.750;17.004;2022-08-04T09:01:22;23.30;99.90
34985;DHT22;21190;58.750;17.004;2022-08-04T09:11:42;23.40;99.90
34985;DHT22;21190;58.750;17.004;2022-08-04T09:19:26;23.50;99.90
34985;DHT22;21190;58.750;17.004;2022-08-04T09:27:09;23.60;99.90
34985;DHT22;21190;58.750;17.004;2022-08-04T09:29:46;23.60;99.90
34985;DHT22;21190;58.750;17.004;2022-08-04T09:32:29;23.70;99.90
34985;DHT22;21190;58.750;17.004;2022-08-04T09:37:36;23.80;99.90
34985;DHT22;21190;58.750;17.004;2022-08-04T09:43:12;23.90;99.90
34985;DHT22;21190;58.750;17.004;2022-08-04T09:45:47;23.90;99.90
34985;DHT22;21190;58.750;17.004;2022-08-04T09:48:36;24.00;99.90
34985;DHT22;21190;58.750;17.004;2022-08-04T09:51:48;24.10;99.90
34985;DHT22;21190;58.750;17.004;2022-08-04T10:02:12;24.40;99.90
34985;DHT22;21190;58.750;17.004;2022-08-04T10:04:41;24.50;99.90
34985;DHT22;21190;58.750;17.004;2022-08-04T10:15:20;24.70;99.90
34985;DHT22;21190;58.750;17.004;2022-08-04T10:25:44;24.90;99.90
34985;DHT22;21190;58.750;17.004;2022-08-04T10:28:37;25.00;99.90
34985;DHT22;21190;58.750;17.004;2022-08-04T10:31:07;25.20;99.90
34985;DHT22;21190;58.750;17.004;2022-08-04T10:33:43;25.20;99.90
34985;DHT22;21190;58.750;17.004;2022-08-04T10:36:11;25.40;99.90
34985;DHT22;21190;58.750;17.004;2022-08-04T10:38:45;25.40;99.90
34985;DHT22;21190;58.750;17.004;2022-08-04T10:41:33;25.50;99.90
34985;DHT22;21190;58.750;17.004;2022-08-04T10:44:21;25.50;99.90
34985;DHT22;21190;58.750;17.004;2022-08-04T10:46:55;25.60;99.90
34985;DHT22;21190;58.750;17.004;2022-08-04T10:54:40;25.80;99.90
34985;DHT22;21190;58.750;17.004;2022-08-04T10:57:21;26.00;99.90
34985;DHT22;21190;58.750;17.004;2022-08-04T11:07:39;26.30;99.90
34985;DHT22;21190;58.750;17.004;2022-08-04T11:10:09;26.40;99.90
34985;DHT22;21190;58.750;17.004;2022-08-04T11:12:39;26.40;99.90
34985;DHT22;21190;58.750;17.004;2022-08-04T11:15:10;26.40;99.90
34985;DHT22;21190;58.750;17.004;2022-08-04T11:17:39;26.30;99.90
34985;DHT22;21190;58.750;17.004;2022-08-04T11:20:21;26.40;99.90
34985;DHT22;21190;58.750;17.004;2022-08-04T11:23:07;26.40;99.90
34985;DHT22;21190;58.750;17.004;2022-08-04T11:25:58;26.40;99.90
34985;DHT22;21190;58.750;17.004;2022-08-04T11:30:55;26.50;99.90
34985;DHT22;21190;58.750;17.004;2022-08-04T11:41:10;26.60;99.90
34985;DHT22;21190;58.750;17.004;2022-08-04T11:43:42;26.60;99.90
34985;DHT22;21190;58.750;17.004;2022-08-04T11:46:31;26.50;99.90
34985;DHT22;21190;58.750;17.004;2022-08-04T11:49:02;26.40;99.90
34985;DHT22;21190;58.750;17.004;2022-08-04T11:51:31;26.20;99.90
34985;DHT22;21190;58.750;17.004;2022-08-04T11:53:59;26.20;99.90
34985;DHT22;21190;58.750;17.004;2022-08-04T11:56:26;26.10;99.90
34985;DHT22;21190;58.750;17.004;2022-08-04T11:59:03;26.10;99.90
34985;DHT22;21190;58.750;17.004;2022-08-04T12:04:36;26.10;99.90
34985;DHT22;21190;58.750;17.004;2022-08-04T12:07:16;26.10;99.90
34985;DHT22;21190;58.750;17.004;2022-08-04T12:15:36;25.90;99.90
34985;DHT22;21190;58.750;17.004;2022-08-04T12:18:13;25.90;99.90
34985;DHT22;21190;58.750;17.004;2022-08-04T12:20:46;25.90;99.90
34985;DHT22;21190;58.750;17.004;2022-08-04T12:23:16;25.90;99.90
34985;DHT22;21190;58.750;17.004;2022-08-04T12:25:49;25.90;99.90
34985;DHT22;21190;58.750;17.004;2022-08-04T12:28:25;25.90;99.90
34985;DHT22;21190;58.750;17.004;2022-08-04T12:30:54;26.10;99.90
34985;DHT22;21190;58.750;17.004;2022-08-04T12:33:39;26.10;99.90
34985;DHT22;21190;58.750;17.004;2022-08-04T12:36:36;26.20;99.90
34985;DHT22;21190;58.750;17.004;2022-08-04T12:39:20;26.20;99.90
34985;DHT22;21190;58.750;17.004;2022-08-04T12:44:14;26.20;99.90
34985;DHT22;21190;58.750;17.004;2022-08-04T12:47:03;26.20;99.90
34985;DHT22;21190;58.750;17.004;2022-08-04T12:49:50;26.20;99.90
34985;DHT22;21190;58.750;17.004;2022-08-04T12:52:26;26.30;99.90
34985;DHT22;21190;58.750;17.004;2022-08-04T12:55:13;26.30;99.90
34985;DHT22;21190;58.750;17.004;2022-08-04T12:57:41;26.30;99.90
34985;DHT22;21190;58.750;17.004;2022-08-04T13:00:09;26.30;99.90
34985;DHT22;21190;58.750;17.004;2022-08-04T13:02:37;26.30;99.90
34985;DHT22;21190;58.750;17.004;2022-08-04T13:05:07;26.40;99.90
34985;DHT22;21190;58.750;17.004;2022-08-04T13:07:45;26.50;99.90
34985;DHT22;21190;58.750;17.004;2022-08-04T13:10:14;26.50;99.90
34985;DHT22;21190;58.750;17.004;2022-08-04T13:12:50;26.60;99.90
34985;DHT22;21190;58.750;17.004;2022-08-04T13:15:19;26.70;99.90
34985;DHT22;21190;58.750;17.004;2022-08-04T13:17:58;26.70;99.90
34985;DHT22;21190;58.750;17.004;2022-08-04T13:20:29;26.70;99.90
34985;DHT22;21190;58.750;17.004;2022-08-04T13:22:58;26.60;99.90
34985;DHT22;21190;58.750;17.004;2022-08-04T13:25:27;26.60;99.90
34985;DHT22;21190;58.750;17.004;2022-08-04T13:28:15;26.60;99.90
34985;DHT22;21190;58.750;17.004;2022-08-04T13:30:45;26.60;99.90
34985;DHT22;21190;58.750;17.004;2022-08-04T13:33:12;26.60;99.90
34985;DHT22;21190;58.750;17.004;2022-08-04T13:35:45;26.60;99.90
34985;DHT22;21190;58.750;17.004;2022-08-04T13:38:21;26.60;99.90
34985;DHT22;21190;58.750;17.004;2022-08-04T13:40:50;26.60;99.90
34985;DHT22;21190;58.750;17.004;2022-08-04T13:43:22;26.50;99.90
34985;DHT22;21190;58.750;17.004;2022-08-04T13:46:12;26.50;99.90
34985;DHT22;21190;58.750;17.004;2022-08-04T13:48:53;26.50;99.90
34985;DHT22;21190;58.750;17.004;2022-08-04T13:51:40;26.50;99.90
34985;DHT22;21190;58.750;17.004;2022-08-04T13:54:45;26.60;99.90
34985;DHT22;21190;58.750;17.004;2022-08-04T13:57:13;26.70;99.90
34985;DHT22;21190;58.750;17.004;2022-08-04T13:59:43;26.70;99.90
34985;DHT22;21190;58.750;17.004;2022-08-04T14:02:15;26.70;99.90
34985;DHT22;21190;58.750;17.004;2022-08-04T14:04:50;26.80;99.90
34985;DHT22;21190;58.750;17.004;2022-08-04T14:07:19;26.80;99.90
34985;DHT22;21190;58.750;17.004;2022-08-04T14:09:48;26.70;99.90
34985;DHT22;21190;58.750;17.004;2022-08-04T14:12:29;26.60;99.90
34985;DHT22;21190;58.750;17.004;2022-08-04T14:15:04;26.60;99.90
34985;DHT22;21190;58.750;17.004;2022-08-04T14:17:31;26.60;99.90
34985;DHT22;21190;58.750;17.004;2022-08-04T14:20:00;26.70;99.90
34985;DHT22;21190;58.750;17.004;2022-08-04T14:22:28;26.70;99.90
34985;DHT22;21190;58.750;17.004;2022-08-04T14:27:39;26.80;99.90
34985;DHT22;21190;58.750;17.004;2022-08-04T14:35:23;26.90;99.90
34985;DHT22;21190;58.750;17.004;2022-08-04T14:38:11;27.00;99.90
34985;DHT22;21190;58.750;17.004;2022-08-04T14:40:38;26.80;99.90
34985;DHT22;21190;58.750;17.004;2022-08-04T14:43:06;26.70;99.90
34985;DHT22;21190;58.750;17.004;2022-08-04T14:45:36;26.70;99.90
34985;DHT22;21190;58.750;17.004;2022-08-04T14:48:07;26.70;99.90
34985;DHT22;21190;58.750;17.004;2022-08-04T14:50:43;26.70;99.90
34985;DHT22;21190;58.750;17.004;2022-08-04T14:53:20;26.80;99.90
34985;DHT22;21190;58.750;17.004;2022-08-04T14:55:49;26.80;99.90
34985;DHT22;21190;58.750;17.004;2022-08-04T14:58:17;26.80;99.90
34985;DHT22;21190;58.750;17.004;2022-08-04T15:01:03;26.90;99.90
34985;DHT22;21190;58.750;17.004;2022-08-04T15:03:40;26.90;99.90
34985;DHT22;21190;58.750;17.004;2022-08-04T15:06:22;26.90;99.90
34985;DHT22;21190;58.750;17.004;2022-08-04T15:08:51;26.90;99.90
34985;DHT22;21190;58.750;17.004;2022-08-04T15:11:19;26.90;99.90
34985;DHT22;21190;58.750;17.004;2022-08-04T15:13:52;26.80;99.90
34985;DHT22;21190;58.750;17.004;2022-08-04T15:16:22;26.80;99.90
34985;DHT22;21190;58.750;17.004;2022-08-04T15:18:49;26.80;99.90
34985;DHT22;21190;58.750;17.004;2022-08-04T15:21:20;26.90;99.90
34985;DHT22;21190;58.750;17.004;2022-08-04T15:23:48;26.90;99.90
34985;DHT22;21190;58.750;17.004;2022-08-04T15:26:34;26.90;99.90
34985;DHT22;21190;58.750;17.004;2022-08-04T15:29:05;26.90;99.90
34985;DHT22;21190;58.750;17.004;2022-08-04T15:31:42;26.80;99.90
34985;DHT22;21190;58.750;17.004;2022-08-04T15:35:30;26.70;99.90
34985;DHT22;21190;58.750;17.004;2022-08-04T15:37:38;26.60;99.90
34985;DHT22;21190;58.750;17.004;2022-08-04T15:40:11;26.40;99.90
34985;DHT22;21190;58.750;17.004;2022-08-04T15:42:46;26.30;99.90
34985;DHT22;21190;58.750;17.004;2022-08-04T15:45:21;26.20;99.90
34985;DHT22;21190;58.750;17.004;2022-08-04T15:53:27;25.70;99.90
34985;DHT22;21190;58.750;17.004;2022-08-04T15:58:54;25.50;99.90
34985;DHT22;21190;58.750;17.004;2022-08-04T16:01:21;25.40;99.90
34985;DHT22;21190;58.750;17.004;2022-08-04T16:03:52;25.30;99.90
34985;DHT22;21190;58.750;17.004;2022-08-04T16:09:02;25.10;99.90
34985;DHT22;21190;58.750;17.004;2022-08-04T16:19:05;24.70;99.90
34985;DHT22;21190;58.750;17.004;2022-08-04T16:21:33;24.60;99.90
34985;DHT22;21190;58.750;17.004;2022-08-04T16:37:21;24.30;99.90
34985;DHT22;21190;58.750;17.004;2022-08-04T16:39:48;24.20;99.90
34985;DHT22;21190;58.750;17.004;2022-08-04T16:50:13;23.80;99.90
34985;DHT22;21190;58.750;17.004;2022-08-04T16:52:50;23.80;99.90
34985;DHT22;21190;58.750;17.004;2022-08-04T16:55:18;23.80;99.90
34985;DHT22;21190;58.750;17.004;2022-08-04T16:57:50;23.70;99.90
34985;DHT22;21190;58.750;17.004;2022-08-04T17:00:17;23.70;99.90
34985;DHT22;21190;58.750;17.004;2022-08-04T17:02:52;23.60;99.90
34985;DHT22;21190;58.750;17.004;2022-08-04T17:05:20;23.40;99.90
34985;DHT22;21190;58.750;17.004;2022-08-04T17:08:06;23.40;99.90
34985;DHT22;21190;58.750;17.004;2022-08-04T17:10:53;23.30;99.90
34985;DHT22;21190;58.750;17.004;2022-08-04T17:16:11;23.40;99.90
34985;DHT22;21190;58.750;17.004;2022-08-04T17:18:45;23.50;99.90
34985;DHT22;21190;58.750;17.004;2022-08-04T17:21:13;23.50;99.90
34985;DHT22;21190;58.750;17.004;2022-08-04T17:23:41;23.50;99.90
34985;DHT22;21190;58.750;17.004;2022-08-04T17:26:29;23.60;99.90
34985;DHT22;21190;58.750;17.004;2022-08-04T17:29:06;23.50;99.90
34985;DHT22;21190;58.750;17.004;2022-08-04T17:31:36;23.50;99.90
34985;DHT22;21190;58.750;17.004;2022-08-04T17:34:11;23.40;99.90
34985;DHT22;21190;58.750;17.004;2022-08-04T17:36:44;23.50;99.90
34985;DHT22;21190;58.750;17.004;2022-08-04T17:39:14;23.50;99.90
34985;DHT22;21190;58.750;17.004;2022-08-04T17:41:43;23.40;99.90
34985;DHT22;21190;58.750;17.004;2022-08-04T17:44:14;23.40;99.90
34985;DHT22;21190;58.750;17.004;2022-08-04T17:46:43;23.40;99.90
34985;DHT22;21190;58.750;17.004;2022-08-04T17:54:35;23.30;99.90
34985;DHT22;21190;58.750;17.004;2022-08-04T17:57:16;23.20;99.90
34985;DHT22;21190;58.750;17.004;2022-08-04T17:59:52;23.10;99.90
34985;DHT22;21190;58.750;17.004;2022-08-04T18:02:25;23.10;99.90
34985;DHT22;21190;58.750;17.004;2022-08-04T18:05:02;23.00;99.90
34985;DHT22;21190;58.750;17.004;2022-08-04T18:07:37;23.00;99.90
34985;DHT22;21190;58.750;17.004;2022-08-04T18:10:37;23.00;99.90
34985;DHT22;21190;58.750;17.004;2022-08-04T18:13:20;22.90;99.90
34985;DHT22;21190;58.750;17.004;2022-08-04T18:15:48;22.80;99.90
34985;DHT22;21190;58.750;17.004;2022-08-04T18:18:20;22.70;99.90
34985;DHT22;21190;58.750;17.004;2022-08-04T18:20:49;22.70;99.90
34985;DHT22;21190;58.750;17.004;2022-08-04T18:23:16;22.70;99.90
34985;DHT22;21190;58.750;17.004;2022-08-04T18:25:44;22.60;99.90
34985;DHT22;21190;58.750;17.004;2022-08-04T18:28:17;22.50;99.90
34985;DHT22;21190;58.750;17.004;2022-08-04T18:30:52;22.50;99.90
34985;DHT22;21190;58.750;17.004;2022-08-04T18:33:21;22.40;99.90
34985;DHT22;21190;58.750;17.004;2022-08-04T18:36:06;22.40;99.90
34985;DHT22;21190;58.750;17.004;2022-08-04T18:38:53;22.30;99.90
34985;DHT22;21190;58.750;17.004;2022-08-04T18:41:25;22.20;99.90
34985;DHT22;21190;58.750;17.004;2022-08-04T18:43:53;22.20;99.90
34985;DHT22;21190;58.750;17.004;2022-08-04T18:46:25;22.10;99.90
34985;DHT22;21190;58.750;17.004;2022-08-04T18:48:55;22.10;99.90
34985;DHT22;21190;58.750;17.004;2022-08-04T18:51:22;22.10;99.90
34985;DHT22;21190;58.750;17.004;2022-08-04T18:53:56;22.10;99.90
34985;DHT22;21190;58.750;17.004;2022-08-04T18:56:25;22.10;99.90
34985;DHT22;21190;58.750;17.004;2022-08-04T18:58:58;22.00;99.90
34985;DHT22;21190;58.750;17.004;2022-08-04T19:01:25;22.00;99.90
34985;DHT22;21190;58.750;17.004;2022-08-04T19:04:13;21.90;99.90
34985;DHT22;21190;58.750;17.004;2022-08-04T19:07:00;21.80;99.90
34985;DHT22;21190;58.750;17.004;2022-08-04T19:09:47;21.70;99.90
34985;DHT22;21190;58.750;17.004;2022-08-04T19:12:18;21.70;99.90
34985;DHT22;21190;58.750;17.004;2022-08-04T19:14:56;21.70;99.90
34985;DHT22;21190;58.750;17.004;2022-08-04T19:17:37;21.60;99.90
34985;DHT22;21190;58.750;17.004;2022-08-04T19:20:22;21.60;99.90
34985;DHT22;21190;58.750;17.004;2022-08-04T19:22:51;21.50;99.90
34985;DHT22;21190;58.750;17.004;2022-08-04T19:25:38;21.50;99.90
34985;DHT22;21190;58.750;17.004;2022-08-04T19:28:26;21.40;99.90
34985;DHT22;21190;58.750;17.004;2022-08-04T19:30:57;21.40;99.90
34985;DHT22;21190;58.750;17.004;2022-08-04T19:33:24;21.40;99.90
34985;DHT22;21190;58.750;17.004;2022-08-04T19:36:11;21.40;99.90
34985;DHT22;21190;58.750;17.004;2022-08-04T19:38:42;21.40;99.90
34985;DHT22;21190;58.750;17.004;2022-08-04T19:41:09;21.40;99.90
34985;DHT22;21190;58.750;17.004;2022-08-04T19:43:40;21.40;99.90
34985;DHT22;21190;58.750;17.004;2022-08-04T19:46:09;21.30;99.90
34985;DHT22;21190;58.750;17.004;2022-08-04T19:48:38;21.30;99.90
34985;DHT22;21190;58.750;17.004;2022-08-04T19:51:05;21.30;99.90
34985;DHT22;21190;58.750;17.004;2022-08-04T19:53:33;21.30;99.90
34985;DHT22;21190;58.750;17.004;2022-08-04T19:56:03;21.30;99.90
34985;DHT22;21190;58.750;17.004;2022-08-04T19:58:31;21.30;99.90
34985;DHT22;21190;58.750;17.004;2022-08-04T20:00:58;21.20;99.90
34985;DHT22;21190;58.750;17.004;2022-08-04T20:03:26;21.20;99.90
34985;DHT22;21190;58.750;17.004;2022-08-04T20:06:13;21.10;99.90
34985;DHT22;21190;58.750;17.004;2022-08-04T20:08:40;21.10;99.90
34985;DHT22;21190;58.750;17.004;2022-08-04T20:11:14;21.00;99.90
34985;DHT22;21190;58.750;17.004;2022-08-04T20:13:43;21.00;99.90
34985;DHT22;21190;58.750;17.004;2022-08-04T20:16:20;20.90;99.90
34985;DHT22;21190;58.750;17.004;2022-08-04T20:18:56;20.90;99.90
34985;DHT22;21190;58.750;17.004;2022-08-04T20:21:43;20.80;99.90
34985;DHT22;21190;58.750;17.004;2022-08-04T20:24:22;20.80;99.90
34985;DHT22;21190;58.750;17.004;2022-08-04T20:27:12;20.50;99.90
34985;DHT22;21190;58.750;17.004;2022-08-04T20:29:42;20.40;99.90
34985;DHT22;21190;58.750;17.004;2022-08-04T20:32:24;20.50;99.90
34985;DHT22;21190;58.750;17.004;2022-08-04T20:34:52;20.40;99.90
34985;DHT22;21190;58.750;17.004;2022-08-04T20:37:20;20.30;99.90
34985;DHT22;21190;58.750;17.004;2022-08-04T20:40:11;20.30;99.90
34985;DHT22;21190;58.750;17.004;2022-08-04T20:42:38;20.30;99.90
34985;DHT22;21190;58.750;17.004;2022-08-04T20:45:10;20.30;99.90
34985;DHT22;21190;58.750;17.004;2022-08-04T20:47:42;20.40;99.90
34985;DHT22;21190;58.750;17.004;2022-08-04T20:50:19;20.30;99.90
34985;DHT22;21190;58.750;17.004;2022-08-04T20:52:56;20.40;99.90
34985;DHT22;21190;58.750;17.004;2022-08-04T20:55:23;20.30;99.90
34985;DHT22;21190;58.750;17.004;2022-08-04T20:57:55;20.30;99.90
34985;DHT22;21190;58.750;17.004;2022-08-04T21:00:29;20.30;99.90